Time;durP1;ratioP1;P1;durP2;ratioP2;P2;SDS_P1;SDS_P2;PMS_P1;PMS_P2;Temp;Humidity;BMP_temperature;BMP_pressure;BME280_temperature;BME280_humidity;BME280_pressure;Samples;Min_cycle;Max_cycle;Signal;HPM_P1;HPM_P2
2023/06/09 00:00:11;;;;;;;8.25;7.55;;;;;;;16.06;100.00;100885.44;6057935;23;20099;-70
2023/06/09 00:02:44;;;;;;;8.25;7.60;;;;;;;15.92;100.00;100873.19;6007873;23;20038;-69
2023/06/09 00:05:11;;;;;;;8.55;7.78;;;;;;;15.76;100.00;100869.97;6058973;23;20093;-69
2023/06/09 00:07:38;;;;;;;8.55;7.85;;;;;;;15.69;100.00;100888.00;6029683;23;20077;-70
2023/06/09 00:10:04;;;;;;;8.88;8.00;;;;;;;15.29;100.00;100829.13;6030733;23;20035;-70
2023/06/09 00:12:31;;;;;;;9.10;8.25;;;;;;;15.56;100.00;100888.03;6032094;23;20027;-70
2023/06/09 00:15:00;;;;;;;8.77;7.97;;;;;;;15.48;100.00;100879.81;6030432;23;20067;-71
2023/06/09 00:17:30;;;;;;;9.27;8.45;;;;;;;15.19;100.00;100833.38;6038078;23;20406;-71
2023/06/09 00:20:03;;;;;;;8.68;7.97;;;;;;;15.54;100.00;100891.75;6063457;23;20018;-71
2023/06/09 00:22:31;;;;;;;8.25;7.43;;;;;;;15.49;100.00;100894.69;6032597;23;20120;-71
2023/06/09 00:24:58;;;;;;;11.57;8.27;;;;;;;15.42;100.00;100895.25;6029610;23;20023;-70
2023/06/09 00:27:24;;;;;;;8.88;8.18;;;;;;;15.39;100.00;100900.75;6060685;23;20033;-70
2023/06/09 00:29:51;;;;;;;8.10;7.50;;;;;;;15.29;100.00;100898.72;6030793;23;20122;-70
2023/06/09 00:32:17;;;;;;;8.98;8.18;;;;;;;15.19;100.00;100894.19;6036724;23;20023;-70
2023/06/09 00:34:44;;;;;;;8.75;7.85;;;;;;;15.22;100.00;100892.19;6060250;23;20030;-70
2023/06/09 00:37:10;;;;;;;8.25;7.57;;;;;;;15.23;100.00;100883.28;6031206;23;20451;-70
2023/06/09 00:39:37;;;;;;;9.48;8.45;;;;;;;15.22;100.00;100883.41;6058349;23;20022;-70
2023/06/09 00:42:05;;;;;;;8.85;8.10;;;;;;;14.93;100.00;100834.25;6005860;23;20029;-70
2023/06/09 00:44:34;;;;;;;8.73;7.93;;;;;;;15.00;100.00;100834.66;6057944;23;20018;-70
2023/06/09 00:47:01;;;;;;;8.48;7.55;;;;;;;15.21;100.00;100869.31;6029663;23;20037;-71
2023/06/09 00:49:31;;;;;;;7.65;7.00;;;;;;;15.18;100.00;100866.06;6032104;23;20098;-70
2023/06/09 00:51:57;;;;;;;8.98;8.23;;;;;;;15.11;100.00;100870.91;6031368;23;20023;-70
2023/06/09 00:54:24;;;;;;;8.32;7.45;;;;;;;15.03;100.00;100855.56;6058162;23;20030;-70
2023/06/09 00:56:51;;;;;;;8.48;7.65;;;;;;;14.81;100.00;100819.19;6030650;23;20716;-70
2023/06/09 00:59:19;;;;;;;7.57;7.05;;;;;;;15.10;100.00;100861.31;6030425;23;20050;-70
2023/06/09 01:01:45;;;;;;;8.98;8.18;;;;;;;15.12;100.00;100864.69;6013662;23;20597;-70
2023/06/09 01:04:15;;;;;;;7.82;7.22;;;;;;;14.71;100.00;100800.50;6063680;23;20042;-70
2023/06/09 01:07:00;;;;;;;7.80;7.15;;;;;;;15.07;100.00;100878.19;6029727;23;20602;-69
2023/06/09 01:09:38;;;;;;;8.85;8.00;;;;;;;14.82;100.00;100857.06;6056077;23;20100;-71
2023/06/09 01:12:29;;;;;;;9.93;8.52;;;;;;;14.90;100.00;100878.53;6028864;23;20058;-69
2023/06/09 01:15:03;;;;;;;8.93;8.18;;;;;;;14.81;100.00;100865.91;6028402;23;20030;-71
2023/06/09 01:17:32;;;;;;;8.48;7.78;;;;;;;14.42;100.00;100812.16;6031624;23;20026;-70
2023/06/09 01:20:04;;;;;;;8.10;7.30;;;;;;;14.92;100.00;100882.75;6032455;23;20026;-69
2023/06/09 01:22:51;;;;;;;8.38;7.50;;;;;;;14.82;100.00;100870.28;6036776;23;20076;-70
2023/06/09 01:25:46;;;;;;;7.78;7.18;;;;;;;14.49;100.00;100813.41;6040036;23;20090;-70
2023/06/09 01:28:20;;;;;;;10.63;7.72;;;;;;;14.95;100.00;100871.09;6060143;23;20707;-69
2023/06/09 01:30:49;;;;;;;9.70;8.00;;;;;;;14.74;100.00;100847.00;6030703;23;20035;-69
2023/06/09 01:33:20;;;;;;;8.85;8.05;;;;;;;14.91;100.00;100875.78;6057673;23;20094;-69
2023/06/09 01:35:47;;;;;;;8.15;7.45;;;;;;;14.89;100.00;100882.09;6003571;23;20054;-70
2023/06/09 01:38:15;;;;;;;8.68;7.90;;;;;;;14.84;100.00;100878.94;6053836;23;20041;-70
2023/06/09 01:40:43;;;;;;;9.88;8.50;;;;;;;14.82;100.00;100888.75;6031415;23;20071;-70
2023/06/09 01:43:09;;;;;;;8.82;8.13;;;;;;;14.64;100.00;100864.41;6026654;23;20086;-70
2023/06/09 01:45:36;;;;;;;8.77;7.97;;;;;;;14.69;100.00;100875.50;6027895;23;20037;-70
2023/06/09 01:48:17;;;;;;;9.27;8.32;;;;;;;14.67;100.00;100880.91;6037795;23;20037;-70
2023/06/09 01:51:05;;;;;;;8.43;7.63;;;;;;;14.64;100.00;100885.56;6055533;23;20046;-70
2023/06/09 01:53:36;;;;;;;8.77;8.05;;;;;;;14.44;100.00;100877.09;6029434;23;20041;-70
2023/06/09 01:56:21;;;;;;;8.60;7.90;;;;;;;14.13;100.00;100839.50;6002641;23;20029;-70
2023/06/09 01:58:53;;;;;;;8.18;7.55;;;;;;;14.37;100.00;100894.28;6024576;23;20133;-70
2023/06/09 02:01:23;;;;;;;7.97;7.28;;;;;;;14.31;100.00;100895.56;6056636;23;20040;-70
2023/06/09 02:03:52;;;;;;;8.55;7.75;;;;;;;14.25;100.00;100918.84;6026486;23;20050;-69
2023/06/09 02:06:20;;;;;;;7.93;7.20;;;;;;;14.24;100.00;100904.81;6030385;23;20026;-70
2023/06/09 02:08:47;;;;;;;7.57;7.05;;;;;;;14.21;100.00;100898.88;6029015;23;20038;-70
2023/06/09 02:11:14;;;;;;;8.38;7.65;;;;;;;14.19;100.00;100895.47;6027841;23;20019;-70
2023/06/09 02:13:40;;;;;;;8.35;7.55;;;;;;;14.18;100.00;100899.91;6029684;23;20039;-70
2023/06/09 02:16:07;;;;;;;9.43;8.48;;;;;;;13.91;100.00;100866.44;6033672;23;20037;-70
2023/06/09 02:18:34;;;;;;;8.27;7.53;;;;;;;14.10;100.00;100897.75;6029840;23;20101;-70
2023/06/09 02:21:02;;;;;;;8.35;7.75;;;;;;;14.10;100.00;100892.47;6055968;23;20097;-70
2023/06/09 02:23:29;;;;;;;8.15;7.47;;;;;;;14.06;100.00;100904.19;6028271;23;20442;-70
2023/06/09 02:25:55;;;;;;;9.10;8.25;;;;;;;14.04;100.00;100900.78;6028011;23;20457;-70
2023/06/09 02:28:22;;;;;;;8.75;7.95;;;;;;;14.04;100.00;100899.97;6026576;23;20026;-70
2023/06/09 02:30:48;;;;;;;9.68;8.60;;;;;;;14.03;100.00;100893.84;6062462;23;20037;-71
2023/06/09 02:33:15;;;;;;;8.73;7.93;;;;;;;14.05;100.00;100899.00;6036156;23;20031;-69
2023/06/09 02:35:41;;;;;;;9.73;8.63;;;;;;;12.96;100.00;100717.66;6057274;23;20033;-70
2023/06/09 02:38:08;;;;;;;8.90;8.10;;;;;;;14.02;100.00;100894.75;6030819;23;20091;-70
2023/06/09 02:40:34;;;;;;;7.55;6.78;;;;;;;13.99;100.00;100894.09;6060855;23;20033;-70
2023/06/09 02:43:01;;;;;;;7.90;7.30;;;;;;;13.98;100.00;100892.44;6008922;23;20022;-70
2023/06/09 02:45:28;;;;;;;9.20;8.32;;;;;;;14.00;100.00;100890.53;6034980;23;20030;-70
2023/06/09 02:47:54;;;;;;;8.95;8.13;;;;;;;13.96;100.00;100888.09;6029831;23;20081;-70
2023/06/09 02:50:23;;;;;;;8.52;7.78;;;;;;;13.96;100.00;100889.88;6064067;23;20473;-70
2023/06/09 02:52:54;;;;;;;10.95;8.75;;;;;;;13.94;100.00;100886.50;6034317;23;20030;-71
2023/06/09 02:55:23;;;;;;;9.00;8.20;;;;;;;13.90;100.00;100882.34;6062970;23;20583;-70
2023/06/09 02:57:50;;;;;;;8.48;7.68;;;;;;;13.89;100.00;100886.78;6033986;23;20590;-70
2023/06/09 03:00:16;;;;;;;8.27;7.45;;;;;;;13.87;100.00;100886.03;6027942;23;20050;-70
2023/06/09 03:02:46;;;;;;;8.48;7.68;;;;;;;13.86;100.00;100894.03;6059789;23;20033;-70
2023/06/09 03:05:13;;;;;;;7.47;6.80;;;;;;;13.72;100.00;100874.66;6034482;23;20642;-71
2023/06/09 03:07:39;;;;;;;8.77;7.97;;;;;;;13.85;100.00;100890.56;6030141;23;20029;-71
2023/06/09 03:10:06;;;;;;;8.45;7.75;;;;;;;13.71;100.00;100862.41;6057717;23;20104;-70
2023/06/09 03:12:33;;;;;;;9.45;8.57;;;;;;;12.73;100.00;100705.06;6031093;23;20037;-69
2023/06/09 03:14:59;;;;;;;9.20;8.38;;;;;;;13.51;100.00;100834.66;6059653;23;20567;-69
2023/06/09 03:17:26;;;;;;;8.82;7.95;;;;;;;13.86;100.00;100884.34;6029993;23;20031;-70
2023/06/09 03:19:53;;;;;;;7.80;7.20;;;;;;;13.87;100.00;100886.03;6059564;23;20225;-70
2023/06/09 03:22:20;;;;;;;8.73;7.93;;;;;;;13.82;100.00;100882.84;6030888;23;20018;-69
2023/06/09 03:24:46;;;;;;;8.20;7.57;;;;;;;13.77;100.00;100879.63;6056132;23;20026;-69
2023/06/09 03:27:13;;;;;;;9.27;8.18;;;;;;;13.20;100.00;100788.22;6028338;23;20019;-70
2023/06/09 03:29:40;;;;;;;8.02;7.30;;;;;;;13.83;100.00;100896.88;6031733;23;20507;-70
2023/06/09 03:32:06;;;;;;;8.80;8.00;;;;;;;12.80;100.00;100729.22;6032013;23;20603;-70
2023/06/09 03:34:33;;;;;;;8.48;7.68;;;;;;;13.81;100.00;100890.84;6030044;23;20090;-70
2023/06/09 03:36:59;;;;;;;8.73;7.93;;;;;;;13.45;100.00;100842.06;6054216;23;20884;-70
2023/06/09 03:39:26;;;;;;;11.50;7.43;;;;;;;13.81;100.00;100898.75;6030756;23;20026;-67
2023/06/09 03:41:54;;;;;;;8.75;7.95;;;;;;;13.80;100.00;100890.00;6053356;23;20030;-67
2023/06/09 03:44:21;;;;;;;8.00;7.20;;;;;;;13.38;100.00;100825.81;6029034;23;20098;-67
2023/06/09 03:46:48;;;;;;;8.75;7.88;;;;;;;13.86;100.00;100900.16;6053577;23;20022;-67
2023/06/09 03:49:14;;;;;;;7.85;7.20;;;;;;;13.91;100.00;100889.31;6027039;23;20039;-67
2023/06/09 03:51:41;;;;;;;7.85;7.15;;;;;;;13.94;100.00;100895.25;6031332;23;20019;-66
2023/06/09 03:54:07;;;;;;;13.68;7.93;;;;;;;13.99;100.00;100904.66;6003608;23;20010;-69
2023/06/09 03:56:33;;;;;;;8.00;7.30;;;;;;;14.00;100.00;100885.25;6027508;23;20014;-69
2023/06/09 03:59:00;;;;;;;8.98;8.15;;;;;;;14.12;100.00;100900.31;6024011;23;20040;-67
2023/06/09 04:01:26;;;;;;;8.68;7.88;;;;;;;14.15;100.00;100895.69;6056809;23;20042;-67
2023/06/09 04:03:53;;;;;;;8.68;7.93;;;;;;;14.18;100.00;100894.63;6025021;23;20416;-67
2023/06/09 04:06:21;;;;;;;8.10;7.40;;;;;;;14.27;100.00;100898.47;6052287;23;20508;-67
2023/06/09 04:08:48;;;;;;;8.25;7.53;;;;;;;14.58;100.00;100901.81;6029005;23;20057;-67
2023/06/09 04:11:14;;;;;;;7.97;7.38;;;;;;;15.33;100.00;100909.94;6056794;23;20338;-67
2023/06/09 04:13:41;;;;;;;8.10;7.40;;;;;;;16.12;100.00;100903.53;6027731;23;20626;-67
2023/06/09 04:16:07;;;;;;;9.65;8.70;;;;;;;16.81;100.00;100902.91;6026215;23;20022;-67
2023/06/09 04:18:34;;;;;;;8.38;7.57;;;;;;;17.55;100.00;100902.56;6031673;23;20638;-67
2023/06/09 04:21:00;;;;;;;10.00;9.10;;;;;;;18.13;97.46;100879.38;6026847;23;20355;-67
2023/06/09 04:23:27;;;;;;;9.57;8.15;;;;;;;18.33;88.82;100845.00;6034570;23;20050;-67
2023/06/09 04:25:54;;;;;;;8.95;8.25;;;;;;;18.64;83.90;100815.88;6025598;23;20014;-67
2023/06/09 04:28:21;;;;;;;9.45;8.68;;;;;;;18.96;81.23;100791.88;6025404;23;20536;-68
2023/06/09 04:30:49;;;;;;;8.98;8.25;;;;;;;19.52;78.41;100796.75;6055080;23;20041;-68
2023/06/09 04:33:15;;;;;;;9.07;8.15;;;;;;;19.75;76.90;100767.25;6031642;23;20045;-68
2023/06/09 04:35:43;;;;;;;9.05;8.05;;;;;;;20.09;74.57;100759.72;6028345;23;20023;-68
2023/06/09 04:38:09;;;;;;;9.48;8.63;;;;;;;20.39;73.57;100747.22;6055743;23;20034;-69
2023/06/09 04:40:37;;;;;;;8.65;7.95;;;;;;;20.54;72.75;100720.91;6027824;23;20094;-69
2023/06/09 04:43:05;;;;;;;11.23;8.80;;;;;;;20.72;71.29;100681.88;6052490;23;20034;-69
2023/06/09 04:45:34;;;;;;;8.80;8.02;;;;;;;21.31;69.83;100705.63;6029001;23;20081;-68
2023/06/09 04:48:05;;;;;;;9.32;8.43;;;;;;;21.59;69.48;100690.44;6054255;23;20040;-69
2023/06/09 04:50:37;;;;;;;9.05;8.15;;;;;;;21.88;67.68;100671.47;6029518;23;20027;-69
2023/06/09 04:53:07;;;;;;;8.82;8.13;;;;;;;22.18;66.63;100653.31;6052948;23;20284;-69
2023/06/09 04:55:35;;;;;;;8.93;7.88;;;;;;;20.66;65.38;100357.13;6028759;23;20027;-68
2023/06/09 04:58:03;;;;;;;9.77;8.88;;;;;;;22.67;64.16;100600.16;6054618;23;20022;-69
2023/06/09 05:00:30;;;;;;;16.00;8.70;;;;;;;23.03;63.38;100580.38;6028475;23;20023;-69
2023/06/09 05:02:57;;;;;;;9.18;8.38;;;;;;;23.26;62.72;100560.00;6054075;23;20007;-69
2023/06/09 05:05:26;;;;;;;8.90;8.05;;;;;;;23.50;61.12;100534.22;6029289;23;20033;-68
2023/06/09 05:07:53;;;;;;;9.55;8.38;;;;;;;23.53;59.75;100491.00;6052841;23;20027;-68
2023/06/09 05:10:21;;;;;;;20.33;18.88;;;;;;;23.46;59.68;100472.13;5948769;23;20590;-67
2023/06/09 05:12:48;;;;;;;8.70;8.02;;;;;;;23.61;59.60;100492.84;5991462;23;20030;-67
2023/06/09 05:15:15;;;;;;;9.07;8.27;;;;;;;23.60;59.99;100478.63;6003205;23;20060;-69
2023/06/09 05:17:42;;;;;;;8.63;8.02;;;;;;;23.76;58.52;100463.53;6050824;23;20014;-69
2023/06/09 05:20:09;;;;;;;8.88;8.13;;;;;;;23.48;58.46;100437.13;6027619;23;20571;-68
2023/06/09 05:22:36;;;;;;;9.25;8.45;;;;;;;23.78;58.43;100432.88;6058561;23;20022;-69
2023/06/09 05:25:03;;;;;;;8.63;8.02;;;;;;;23.43;58.11;100365.34;6027752;23;20038;-68
2023/06/09 05:27:30;;;;;;;8.95;8.25;;;;;;;24.48;56.58;100415.94;6051955;23;20046;-69
2023/06/09 05:29:57;;;;;;;9.60;8.70;;;;;;;24.62;55.77;100398.28;6028194;23;20033;-69
2023/06/09 05:32:23;;;;;;;8.48;7.80;;;;;;;25.03;55.20;100408.66;6028532;23;20043;-69
2023/06/09 05:34:50;;;;;;;8.25;7.65;;;;;;;24.96;54.77;100367.47;6053221;23;20022;-69
2023/06/09 05:37:16;;;;;;;8.82;8.10;;;;;;;24.91;54.07;100339.50;6050437;23;20146;-69
2023/06/09 05:39:43;;;;;;;9.05;8.20;;;;;;;25.24;53.87;100416.06;6037826;23;20619;-68
2023/06/09 05:42:09;;;;;;;9.15;8.45;;;;;;;24.73;53.76;100363.97;6026007;23;20033;-69
2023/06/09 05:44:36;;;;;;;9.48;8.57;;;;;;;24.99;53.14;100355.53;6054146;23;20476;-68
2023/06/09 05:47:03;;;;;;;8.45;7.85;;;;;;;25.50;53.03;100438.97;6025467;23;20036;-67
2023/06/09 05:49:30;;;;;;;8.85;8.15;;;;;;;25.75;52.56;100436.00;6055771;23;20030;-67
2023/06/09 05:51:56;;;;;;;8.90;8.20;;;;;;;25.80;52.00;100407.56;6026512;23;20106;-69
2023/06/09 05:54:24;;;;;;;10.30;9.18;;;;;;;25.17;52.02;100369.44;6054924;23;20025;-67
2023/06/09 05:56:53;;;;;;;8.85;7.95;;;;;;;25.91;52.40;100475.34;6026622;23;20043;-67
2023/06/09 05:59:20;;;;;;;9.80;8.80;;;;;;;25.90;51.56;100430.63;6053209;23;20931;-67
2023/06/09 06:01:47;;;;;;;8.80;8.13;;;;;;;25.83;51.20;100428.69;6024153;23;20034;-67
2023/06/09 06:04:14;;;;;;;9.15;8.45;;;;;;;25.79;51.92;100475.78;6051527;23;20021;-67
2023/06/09 06:06:40;;;;;;;9.57;8.85;;;;;;;25.78;50.33;100384.56;6025677;23;20520;-67
2023/06/09 06:09:07;;;;;;;9.82;9.02;;;;;;;25.95;50.30;100407.56;6053937;23;20101;-67
2023/06/09 06:11:34;;;;;;;8.70;8.00;;;;;;;26.26;50.31;100455.75;6026680;23;20089;-67
2023/06/09 06:14:01;;;;;;;8.68;8.07;;;;;;;26.54;48.89;100405.72;6026960;23;20043;-67
2023/06/09 06:16:27;;;;;;;8.93;8.23;;;;;;;26.08;50.07;100414.97;6052706;23;22228;-67
2023/06/09 06:18:53;;;;;;;9.13;8.38;;;;;;;26.45;50.06;100478.50;6026251;23;20070;-68
2023/06/09 06:21:20;;;;;;;10.30;9.30;;;;;;;26.63;48.60;100418.06;6023694;23;20038;-68
2023/06/09 06:23:47;;;;;;;9.25;8.35;;;;;;;26.33;49.44;100433.47;6054576;23;20052;-67
2023/06/09 06:26:13;;;;;;;9.32;8.52;;;;;;;25.52;48.85;100301.75;6024688;23;20026;-68
2023/06/09 06:28:39;;;;;;;9.38;8.68;;;;;;;24.93;51.63;100405.41;6053764;23;20044;-68
2023/06/09 06:31:06;;;;;;;9.05;8.30;;;;;;;24.56;52.56;100444.59;6023386;23;20034;-68
2023/06/09 06:33:33;;;;;;;8.75;8.15;;;;;;;24.16;54.01;100467.94;6052380;23;20025;-67
2023/06/09 06:35:59;;;;;;;8.15;7.55;;;;;;;24.05;54.27;100500.47;6028469;23;20101;-68
2023/06/09 06:38:26;;;;;;;8.98;8.32;;;;;;;24.12;53.73;100482.69;6053197;23;20072;-68
2023/06/09 06:40:52;;;;;;;8.95;8.15;;;;;;;24.11;53.73;100499.78;6025280;23;20086;-68
2023/06/09 06:43:18;;;;;;;8.50;7.90;;;;;;;23.84;54.83;100517.97;6051673;23;20034;-68
2023/06/09 06:45:45;;;;;;;8.57;7.88;;;;;;;24.04;54.25;100530.97;6024647;23;20085;-68
2023/06/09 06:48:11;;;;;;;8.85;8.25;;;;;;;23.68;54.08;100491.16;6001897;23;20648;-68
2023/06/09 06:50:40;;;;;;;9.48;8.68;;;;;;;23.27;56.25;100552.78;6051206;23;20038;-68
2023/06/09 06:53:08;;;;;;;9.45;8.65;;;;;;;23.21;56.30;100559.66;6023416;23;20514;-68
2023/06/09 06:55:35;;;;;;;9.00;8.20;;;;;;;23.42;56.67;100577.09;6052989;23;20043;-67
2023/06/09 06:58:03;;;;;;;10.15;8.65;;;;;;;23.10;58.30;100629.56;6024944;23;20082;-68
2023/06/09 07:00:30;;;;;;;9.90;9.00;;;;;;;23.33;59.07;100650.38;6051970;23;20033;-68
2023/06/09 07:02:56;;;;;;;9.43;8.63;;;;;;;23.54;57.73;100639.19;6025676;23;20518;-68
2023/06/09 07:05:23;;;;;;;9.18;8.45;;;;;;;23.52;57.31;100614.41;6045440;23;20061;-69
2023/06/09 07:07:49;;;;;;;9.40;8.50;;;;;;;22.73;59.05;100542.47;6048716;23;20371;-67
2023/06/09 07:10:16;;;;;;;9.30;8.57;;;;;;;23.67;57.86;100636.84;6028348;23;20023;-67
2023/06/09 07:12:42;;;;;;;8.65;7.95;;;;;;;23.85;57.32;100656.34;6024153;23;20006;-67
2023/06/09 07:15:09;;;;;;;9.60;8.77;;;;;;;23.83;58.59;100679.75;5999958;23;20041;-66
2023/06/09 07:17:36;;;;;;;9.23;8.38;;;;;;;23.93;57.67;100673.41;6051163;23;20081;-67
2023/06/09 07:20:03;;;;;;;8.98;8.18;;;;;;;23.73;57.06;100611.22;6029702;23;20035;-67
2023/06/09 07:22:33;;;;;;;8.73;7.93;;;;;;;24.14;55.44;100605.88;6056109;23;20038;-67
2023/06/09 07:25:00;;;;;;;9.60;8.80;;;;;;;24.12;54.99;100579.22;6031879;23;20027;-67
2023/06/09 07:27:26;;;;;;;11.80;8.63;;;;;;;24.39;54.69;100612.81;6056375;23;20515;-67
2023/06/09 07:29:53;;;;;;;9.05;8.35;;;;;;;24.19;53.63;100529.22;6026418;23;20007;-66
2023/06/09 07:32:20;;;;;;;9.52;8.68;;;;;;;24.36;54.82;100606.97;6031447;23;20030;-68
2023/06/09 07:34:46;;;;;;;9.48;8.68;;;;;;;24.46;54.21;100588.84;6016854;23;20042;-66
2023/06/09 07:37:13;;;;;;;12.65;8.45;;;;;;;24.07;54.55;100547.56;6022117;23;20082;-68
2023/06/09 07:39:40;;;;;;;9.02;8.23;;;;;;;23.40;55.40;100515.63;6029663;23;20097;-68
2023/06/09 07:42:06;;;;;;;11.25;9.73;;;;;;;23.92;55.49;100600.19;6024349;23;20706;-69
2023/06/09 07:44:34;;;;;;;10.00;9.00;;;;;;;23.75;55.39;100587.78;6025853;23;20034;-67
2023/06/09 07:47:00;;;;;;;9.52;8.73;;;;;;;23.96;55.63;100595.34;6054325;23;20085;-66
2023/06/09 07:49:26;;;;;;;9.77;8.93;;;;;;;23.94;55.41;100624.97;6028272;23;20034;-67
2023/06/09 07:51:53;;;;;;;10.23;9.20;;;;;;;24.10;56.25;100656.31;6027042;23;20022;-67
2023/06/09 07:54:21;;;;;;;10.45;9.23;;;;;;;24.06;55.70;100612.06;6029791;23;20037;-66
2023/06/09 07:56:49;;;;;;;11.20;10.02;;;;;;;23.93;54.66;100552.78;6054709;23;20034;-67
2023/06/09 07:59:17;;;;;;;10.27;9.38;;;;;;;24.00;53.83;100554.59;6027171;23;20087;-67
2023/06/09 08:01:45;;;;;;;14.27;9.15;;;;;;;24.21;54.39;100582.69;6026721;23;20596;-67
2023/06/09 08:04:11;;;;;;;9.52;8.73;;;;;;;24.07;53.85;100549.38;6055212;23;20051;-66
2023/06/09 08:06:38;;;;;;;9.95;8.80;;;;;;;23.66;53.92;100487.81;6027046;23;20551;-67
2023/06/09 08:09:05;;;;;;;9.13;8.25;;;;;;;24.31;55.24;100628.94;6051788;23;20093;-67
2023/06/09 08:11:32;;;;;;;9.82;8.85;;;;;;;24.26;54.44;100608.00;6025451;23;20038;-67
2023/06/09 08:13:58;;;;;;;9.65;8.75;;;;;;;23.66;53.93;100471.75;6039833;23;20030;-66
2023/06/09 08:16:25;;;;;;;9.93;9.13;;;;;;;23.91;55.08;100576.22;6025512;23;20017;-69
2023/06/09 08:18:51;;;;;;;10.05;9.10;;;;;;;23.83;53.78;100510.91;6056271;23;20059;-67
2023/06/09 08:21:18;;;;;;;9.65;8.75;;;;;;;24.18;53.87;100577.69;6027359;23;20026;-67
2023/06/09 08:23:44;;;;;;;10.13;9.10;;;;;;;24.00;52.20;100443.88;6053322;23;20025;-67
2023/06/09 08:26:11;;;;;;;8.32;7.72;;;;;;;24.69;53.15;100579.00;6024959;23;20050;-67
2023/06/09 08:28:38;;;;;;;9.40;8.63;;;;;;;25.15;53.01;100612.34;6027749;23;20102;-67
2023/06/09 08:31:06;;;;;;;9.07;8.32;;;;;;;25.23;51.26;100534.41;6026435;23;20035;-67
2023/06/09 08:33:33;;;;;;;8.80;8.02;;;;;;;25.30;51.14;100543.44;6054583;23;20038;-67
2023/06/09 08:36:04;;;;;;;8.63;7.93;;;;;;;25.39;50.46;100534.28;6026721;23;20097;-69
2023/06/09 08:38:32;;;;;;;9.23;8.45;;;;;;;25.52;49.70;100496.06;6029556;23;20057;-69
2023/06/09 08:41:05;;;;;;;9.25;7.75;;;;;;;25.72;49.80;100533.13;6027181;23;20035;-67
2023/06/09 08:43:32;;;;;;;9.00;8.20;;;;;;;25.77;49.80;100523.50;6026888;23;20077;-67
2023/06/09 08:46:01;;;;;;;8.95;8.10;;;;;;;25.90;49.11;100487.97;6007718;23;20043;-68
2023/06/09 08:48:30;;;;;;;8.27;7.68;;;;;;;25.83;47.74;100430.53;6028415;23;20034;-68
2023/06/09 08:50:58;;;;;;;8.75;7.97;;;;;;;26.01;48.11;100468.66;6053613;23;20031;-69
2023/06/09 08:53:25;;;;;;;9.00;8.27;;;;;;;26.20;47.74;100475.31;6025883;23;20680;-68
2023/06/09 08:55:55;;;;;;;8.73;8.07;;;;;;;26.25;47.46;100445.16;6028040;23;20652;-68
2023/06/09 08:58:22;;;;;;;8.57;7.97;;;;;;;25.88;46.92;100361.75;6025687;23;20043;-68
2023/06/09 09:00:50;;;;;;;8.75;8.05;;;;;;;26.55;46.61;100448.59;6027251;23;20034;-68
2023/06/09 09:03:20;;;;;;;9.05;8.18;;;;;;;26.25;47.11;100440.59;6055925;23;20892;-68
2023/06/09 09:05:47;;;;;;;8.85;8.23;;;;;;;26.15;47.16;100409.66;6027476;23;20090;-68
2023/06/09 09:08:14;;;;;;;8.35;7.75;;;;;;;25.34;45.83;100224.22;6029259;23;20106;-69
2023/06/09 09:10:41;;;;;;;8.55;7.80;;;;;;;26.60;46.39;100454.28;6026616;23;20022;-68
2023/06/09 09:13:10;;;;;;;8.73;7.90;;;;;;;26.63;46.25;100445.81;6056448;23;20476;-68
2023/06/09 09:15:37;;;;;;;9.13;8.32;;;;;;;26.72;45.53;100416.94;6004242;23;20117;-68
2023/06/09 09:18:07;;;;;;;8.77;8.07;;;;;;;26.43;46.02;100401.69;6057503;23;20041;-68
2023/06/09 09:20:35;;;;;;;8.57;7.93;;;;;;;26.53;46.09;100418.34;6027041;23;20110;-68
2023/06/09 09:23:03;;;;;;;8.93;8.15;;;;;;;26.81;46.20;100453.44;6057614;23;20034;-69
2023/06/09 09:25:30;;;;;;;8.40;7.70;;;;;;;26.43;45.77;100378.28;6027696;23;20544;-68
2023/06/09 09:28:07;;;;;;;9.15;8.45;;;;;;;26.49;45.29;100376.69;6026383;23;20022;-66
2023/06/09 09:30:45;;;;;;;8.32;7.65;;;;;;;26.28;45.02;100350.63;6050443;23;20037;-67
2023/06/09 09:33:13;;;;;;;8.48;7.80;;;;;;;26.12;45.65;100375.06;6027812;23;20023;-69
2023/06/09 09:35:44;;;;;;;7.85;7.28;;;;;;;26.37;45.39;100389.00;6054782;23;20022;-69
2023/06/09 09:38:19;;;;;;;8.80;8.13;;;;;;;26.62;45.22;100397.53;5999544;23;20087;-66
2023/06/09 09:40:48;;;;;;;9.85;8.27;;;;;;;26.82;44.24;100395.03;6052332;23;20097;-68
2023/06/09 09:43:15;;;;;;;8.60;7.70;;;;;;;26.51;44.44;100338.84;6026405;23;20695;-69
2023/06/09 09:45:50;;;;;;;9.63;8.77;;;;;;;26.89;45.49;100452.50;6055569;23;20481;-67
2023/06/09 09:48:19;;;;;;;8.20;7.45;;;;;;;27.25;44.41;100471.25;6024997;23;20085;-68
2023/06/09 09:50:47;;;;;;;8.50;7.68;;;;;;;27.42;43.77;100427.84;6028600;23;20457;-67
2023/06/09 09:53:15;;;;;;;9.60;8.80;;;;;;;27.40;43.30;100400.25;6050472;23;20026;-67
2023/06/09 09:55:43;;;;;;;8.30;7.75;;;;;;;27.54;43.30;100410.09;6027437;23;20508;-68
2023/06/09 09:58:10;;;;;;;8.00;7.50;;;;;;;27.44;43.65;100420.41;6052088;23;20532;-68
2023/06/09 10:00:38;;;;;;;8.18;7.57;;;;;;;27.73;44.43;100470.56;6024465;23;20038;-70
2023/06/09 10:03:14;;;;;;;8.68;7.97;;;;;;;28.02;43.83;100485.72;6051274;23;20046;-69
2023/06/09 10:05:46;;;;;;;9.10;8.30;;;;;;;27.81;42.71;100389.50;6026046;23;20038;-68
2023/06/09 10:08:26;;;;;;;8.45;7.78;;;;;;;27.57;42.36;100336.09;6048949;23;20022;-69
2023/06/09 10:10:56;;;;;;;8.65;8.05;;;;;;;27.01;42.82;100283.13;6027200;23;20455;-69
2023/06/09 10:13:26;;;;;;;8.48;7.78;;;;;;;27.45;43.04;100401.34;6052011;23;20018;-68
2023/06/09 10:15:53;;;;;;;8.10;7.60;;;;;;;27.43;43.01;100391.78;6027889;23;20050;-70
2023/06/09 10:18:21;;;;;;;8.60;7.90;;;;;;;27.83;43.10;100403.63;6055784;23;20481;-69
2023/06/09 10:20:50;;;;;;;7.90;7.40;;;;;;;28.13;42.62;100424.09;6026452;23;20099;-70
2023/06/09 10:23:17;;;;;;;8.43;7.80;;;;;;;28.30;41.92;100397.56;6057091;23;20026;-68
2023/06/09 10:25:48;;;;;;;8.27;7.72;;;;;;;28.36;42.40;100429.97;6026253;23;20026;-69
2023/06/09 10:28:16;;;;;;;8.55;7.85;;;;;;;27.94;41.59;100342.06;6021466;23;20027;-68
2023/06/09 10:30:44;;;;;;;8.10;7.60;;;;;;;28.38;41.12;100398.22;6051673;23;20050;-68
2023/06/09 10:33:15;;;;;;;7.85;7.28;;;;;;;28.01;40.35;100278.19;6024083;23;20038;-69
2023/06/09 10:35:44;;;;;;;11.90;7.27;;;;;;;28.16;40.32;100305.78;6050707;23;20026;-68
2023/06/09 10:38:39;;;;;;;7.95;7.25;;;;;;;28.20;40.48;100361.00;6025818;23;20026;-69
2023/06/09 10:41:28;;;;;;;7.93;7.32;;;;;;;28.39;41.07;100408.00;6053997;23;20022;-69
2023/06/09 10:44:21;;;;;;;7.70;7.10;;;;;;;27.24;40.57;100167.00;6025331;23;20070;-70
2023/06/09 10:46:52;;;;;;;9.93;7.80;;;;;;;28.55;39.91;100354.69;6026828;23;20042;-70
2023/06/09 10:49:24;;;;;;;8.00;7.45;;;;;;;28.53;39.68;100338.69;6052786;23;20034;-70
2023/06/09 10:51:52;;;;;;;8.95;8.15;;;;;;;28.34;40.31;100323.25;6027920;23;20042;-68
2023/06/09 10:54:25;;;;;;;9.43;8.77;;;;;;;28.47;39.06;100288.19;6026948;23;20570;-69
2023/06/09 10:57:00;;;;;;;8.30;7.57;;;;;;;28.23;39.49;100274.25;6053577;23;20585;-68
2023/06/09 10:59:28;;;;;;;8.60;7.90;;;;;;;28.38;40.63;100381.19;6026625;23;20034;-68
2023/06/09 11:04:41;;;;;;;8.27;7.68;;;;;;;28.69;39.34;100333.91;6042235;23;20177;-68
2023/06/09 11:07:12;;;;;;;8.27;7.60;;;;;;;28.30;38.11;100205.97;6027420;23;21352;-68
2023/06/09 11:09:39;;;;;;;8.20;7.60;;;;;;;28.88;37.67;100306.03;6056766;23;20401;-67
2023/06/09 11:12:08;;;;;;;7.85;7.25;;;;;;;28.98;38.69;100352.38;6028942;23;20027;-68
2023/06/09 11:14:43;;;;;;;8.10;7.50;;;;;;;29.14;38.92;100363.81;6055394;23;20055;-67
2023/06/09 11:17:16;;;;;;;8.25;7.55;;;;;;;29.39;38.72;100418.88;6026552;23;20098;-68
2023/06/09 11:19:42;;;;;;;;;;;;;;;29.23;35.94;100209.34;6028000;23;20097;-68
2023/06/09 11:22:09;;;;;;;8.88;7.03;;;;;;;28.29;37.39;100223.22;6029085;23;19943;-68
2023/06/09 11:24:46;;;;;;;8.10;7.40;;;;;;;28.13;36.35;100114.66;6030192;23;20046;-68
2023/06/09 11:27:22;;;;;;;7.72;7.20;;;;;;;28.24;37.18;100213.88;6032370;23;20030;-68
2023/06/09 11:30:05;;;;;;;7.50;7.10;;;;;;;28.54;35.50;100164.84;6055443;23;20038;-68